sensor_id;sensor_type;location;lat;lon;timestamp;temperature;humidity
1678;DHT22;6034;46.864;15.216;2024-02-15T06:04:03;7.00;97.40
1678;DHT22;6034;46.864;15.216;2024-02-15T06:06:34;7.10;97.20
1678;DHT22;6034;46.864;15.216;2024-02-15T06:09:01;7.10;97.30
1678;DHT22;6034;46.864;15.216;2024-02-15T06:11:30;7.20;97.30
1678;DHT22;6034;46.864;15.216;2024-02-15T06:14:02;7.10;97.60
1678;DHT22;6034;46.864;15.216;2024-02-15T06:16:43;7.20;97.20
1678;DHT22;6034;46.864;15.216;2024-02-15T06:19:14;7.20;97.30
1678;DHT22;6034;46.864;15.216;2024-02-15T06:21:43;7.30;97.30
1678;DHT22;6034;46.864;15.216;2024-02-15T06:24:16;7.30;97.50
1678;DHT22;6034;46.864;15.216;2024-02-15T06:26:44;7.30;97.50
1678;DHT22;6034;46.864;15.216;2024-02-15T06:29:14;7.30;97.30
1678;DHT22;6034;46.864;15.216;2024-02-15T06:31:59;7.30;97.50
1678;DHT22;6034;46.864;15.216;2024-02-15T06:34:45;7.40;98.10
1678;DHT22;6034;46.864;15.216;2024-02-15T06:37:38;7.30;98.00
1678;DHT22;6034;46.864;15.216;2024-02-15T06:40:23;7.30;98.00
1678;DHT22;6034;46.864;15.216;2024-02-15T06:42:50;7.30;98.30
1678;DHT22;6034;46.864;15.216;2024-02-15T06:45:17;7.40;98.10
1678;DHT22;6034;46.864;15.216;2024-02-15T06:47:45;7.30;98.20
1678;DHT22;6034;46.864;15.216;2024-02-15T06:50:14;7.20;98.40
1678;DHT22;6034;46.864;15.216;2024-02-15T06:52:43;7.20;98.70
1678;DHT22;6034;46.864;15.216;2024-02-15T06:55:10;7.30;98.40
1678;DHT22;6034;46.864;15.216;2024-02-15T06:57:39;7.40;98.10
1678;DHT22;6034;46.864;15.216;2024-02-15T07:00:08;7.50;98.00
1678;DHT22;6034;46.864;15.216;2024-02-15T07:02:41;7.50;98.20
1678;DHT22;6034;46.864;15.216;2024-02-15T07:05:10;7.50;98.20
1678;DHT22;6034;46.864;15.216;2024-02-15T07:07:39;7.60;98.50
1678;DHT22;6034;46.864;15.216;2024-02-15T07:10:09;7.60;98.70
1678;DHT22;6034;46.864;15.216;2024-02-15T07:12:36;7.60;98.80
1678;DHT22;6034;46.864;15.216;2024-02-15T07:15:05;7.50;99.40
1678;DHT22;6034;46.864;15.216;2024-02-15T07:17:34;7.50;99.90
1678;DHT22;6034;46.864;15.216;2024-02-15T07:20:06;7.60;99.90
1678;DHT22;6034;46.864;15.216;2024-02-15T07:22:36;7.50;99.90
1678;DHT22;6034;46.864;15.216;2024-02-15T07:25:07;7.50;99.90
1678;DHT22;6034;46.864;15.216;2024-02-15T07:27:34;7.10;99.00
1678;DHT22;6034;46.864;15.216;2024-02-15T07:30:02;7.20;99.90
1678;DHT22;6034;46.864;15.216;2024-02-15T07:32:32;7.50;99.70
1678;DHT22;6034;46.864;15.216;2024-02-15T07:35:12;7.60;99.80
1678;DHT22;6034;46.864;15.216;2024-02-15T07:37:51;7.70;99.00
1678;DHT22;6034;46.864;15.216;2024-02-15T07:40:22;7.80;98.70
1678;DHT22;6034;46.864;15.216;2024-02-15T07:42:54;7.80;99.10
1678;DHT22;6034;46.864;15.216;2024-02-15T07:45:22;7.90;99.60
1678;DHT22;6034;46.864;15.216;2024-02-15T07:47:49;7.90;99.80
1678;DHT22;6034;46.864;15.216;2024-02-15T07:50:17;8.00;99.90
1678;DHT22;6034;46.864;15.216;2024-02-15T07:52:46;8.00;99.90
1678;DHT22;6034;46.864;15.216;2024-02-15T07:55:14;8.10;99.90
1678;DHT22;6034;46.864;15.216;2024-02-15T07:57:43;8.20;99.90
1678;DHT22;6034;46.864;15.216;2024-02-15T08:00:12;8.20;99.90
1678;DHT22;6034;46.864;15.216;2024-02-15T08:02:42;8.20;99.90
1678;DHT22;6034;46.864;15.216;2024-02-15T08:05:11;8.20;99.90
1678;DHT22;6034;46.864;15.216;2024-02-15T08:07:48;8.20;99.90
1678;DHT22;6034;46.864;15.216;2024-02-15T08:10:21;8.40;99.90
1678;DHT22;6034;46.864;15.216;2024-02-15T08:12:51;8.40;99.90
1678;DHT22;6034;46.864;15.216;2024-02-15T08:15:19;8.50;99.90
1678;DHT22;6034;46.864;15.216;2024-02-15T08:17:46;8.40;99.90
1678;DHT22;6034;46.864;15.216;2024-02-15T08:20:15;8.50;99.90
1678;DHT22;6034;46.864;15.216;2024-02-15T08:22:47;8.50;99.90
1678;DHT22;6034;46.864;15.216;2024-02-15T08:25:16;8.20;99.90
1678;DHT22;6034;46.864;15.216;2024-02-15T08:27:46;8.30;99.90
1678;DHT22;6034;46.864;15.216;2024-02-15T08:30:17;8.20;99.90
1678;DHT22;6034;46.864;15.216;2024-02-15T08:32:45;8.20;99.90
1678;DHT22;6034;46.864;15.216;2024-02-15T08:35:13;8.20;99.90
1678;DHT22;6034;46.864;15.216;2024-02-15T08:37:41;8.40;99.90
1678;DHT22;6034;46.864;15.216;2024-02-15T08:40:17;8.50;99.90
1678;DHT22;6034;46.864;15.216;2024-02-15T08:42:52;8.60;99.90
1678;DHT22;6034;46.864;15.216;2024-02-15T08:45:24;8.80;99.90
1678;DHT22;6034;46.864;15.216;2024-02-15T08:47:59;9.10;99.90
1678;DHT22;6034;46.864;15.216;2024-02-15T08:50:30;9.30;99.90
1678;DHT22;6034;46.864;15.216;2024-02-15T08:52:58;9.40;99.90
1678;DHT22;6034;46.864;15.216;2024-02-15T08:55:25;9.50;99.90
1678;DHT22;6034;46.864;15.216;2024-02-15T08:57:53;9.70;99.70
1678;DHT22;6034;46.864;15.216;2024-02-15T09:00:23;9.90;98.60
1678;DHT22;6034;46.864;15.216;2024-02-15T09:02:52;10.00;97.60
1678;DHT22;6034;46.864;15.216;2024-02-15T09:05:20;9.80;97.50
1678;DHT22;6034;46.864;15.216;2024-02-15T09:07:48;9.80;97.60
1678;DHT22;6034;46.864;15.216;2024-02-15T09:10:16;9.50;97.50
1678;DHT22;6034;46.864;15.216;2024-02-15T09:12:45;9.40;98.00
1678;DHT22;6034;46.864;15.216;2024-02-15T09:15:15;9.40;98.50
1678;DHT22;6034;46.864;15.216;2024-02-15T09:17:45;9.30;97.00
1678;DHT22;6034;46.864;15.216;2024-02-15T09:20:19;9.40;98.00
1678;DHT22;6034;46.864;15.216;2024-02-15T09:22:57;9.60;97.20
1678;DHT22;6034;46.864;15.216;2024-02-15T09:25:28;9.80;97.60
1678;DHT22;6034;46.864;15.216;2024-02-15T09:27:57;9.70;96.60
1678;DHT22;6034;46.864;15.216;2024-02-15T09:30:24;9.70;96.20
1678;DHT22;6034;46.864;15.216;2024-02-15T09:32:56;9.90;96.20
1678;DHT22;6034;46.864;15.216;2024-02-15T09:35:23;9.90;96.20
1678;DHT22;6034;46.864;15.216;2024-02-15T09:37:52;10.00;94.70
1678;DHT22;6034;46.864;15.216;2024-02-15T09:40:23;10.10;95.20
1678;DHT22;6034;46.864;15.216;2024-02-15T09:42:52;10.10;96.40
1678;DHT22;6034;46.864;15.216;2024-02-15T09:45:19;10.20;97.70
1678;DHT22;6034;46.864;15.216;2024-02-15T09:47:50;10.30;97.50
1678;DHT22;6034;46.864;15.216;2024-02-15T09:50:20;10.40;97.20
1678;DHT22;6034;46.864;15.216;2024-02-15T09:52:51;10.40;96.20
1678;DHT22;6034;46.864;15.216;2024-02-15T09:55:20;10.40;95.10
1678;DHT22;6034;46.864;15.216;2024-02-15T09:57:50;10.50;94.70
1678;DHT22;6034;46.864;15.216;2024-02-15T10:00:17;10.60;95.10
1678;DHT22;6034;46.864;15.216;2024-02-15T10:02:46;10.70;94.90
1678;DHT22;6034;46.864;15.216;2024-02-15T10:05:14;10.80;95.00
1678;DHT22;6034;46.864;15.216;2024-02-15T10:07:44;10.90;94.80
1678;DHT22;6034;46.864;15.216;2024-02-15T10:10:16;11.00;95.50
1678;DHT22;6034;46.864;15.216;2024-02-15T10:12:44;11.10;95.80
1678;DHT22;6034;46.864;15.216;2024-02-15T10:15:27;11.00;95.30
1678;DHT22;6034;46.864;15.216;2024-02-15T10:17:56;10.90;95.40
1678;DHT22;6034;46.864;15.216;2024-02-15T10:20:24;10.90;95.60
1678;DHT22;6034;46.864;15.216;2024-02-15T10:23:09;10.80;95.60
1678;DHT22;6034;46.864;15.216;2024-02-15T10:25:36;10.60;96.30
1678;DHT22;6034;46.864;15.216;2024-02-15T10:28:04;10.70;95.10
1678;DHT22;6034;46.864;15.216;2024-02-15T10:30:34;10.80;95.30
1678;DHT22;6034;46.864;15.216;2024-02-15T10:33:02;10.90;95.90
1678;DHT22;6034;46.864;15.216;2024-02-15T10:35:30;11.00;95.90
1678;DHT22;6034;46.864;15.216;2024-02-15T10:38:16;11.00;95.70
1678;DHT22;6034;46.864;15.216;2024-02-15T10:40:44;11.00;95.90
1678;DHT22;6034;46.864;15.216;2024-02-15T10:43:11;11.10;96.20
1678;DHT22;6034;46.864;15.216;2024-02-15T10:45:40;11.20;96.50
1678;DHT22;6034;46.864;15.216;2024-02-15T10:48:08;11.20;96.20
1678;DHT22;6034;46.864;15.216;2024-02-15T10:50:35;11.30;96.30
1678;DHT22;6034;46.864;15.216;2024-02-15T10:53:13;11.40;95.80
1678;DHT22;6034;46.864;15.216;2024-02-15T10:55:57;11.40;95.80
1678;DHT22;6034;46.864;15.216;2024-02-15T10:58:32;11.50;96.00
1678;DHT22;6034;46.864;15.216;2024-02-15T11:01:01;11.40;95.30
1678;DHT22;6034;46.864;15.216;2024-02-15T11:03:35;11.30;95.70
1678;DHT22;6034;46.864;15.216;2024-02-15T11:06:05;11.40;95.80
1678;DHT22;6034;46.864;15.216;2024-02-15T11:08:33;11.50;96.20
1678;DHT22;6034;46.864;15.216;2024-02-15T11:11:02;11.60;96.30
1678;DHT22;6034;46.864;15.216;2024-02-15T11:13:30;11.70;96.30
1678;DHT22;6034;46.864;15.216;2024-02-15T11:15:59;11.70;95.80
1678;DHT22;6034;46.864;15.216;2024-02-15T11:18:51;11.70;95.90
1678;DHT22;6034;46.864;15.216;2024-02-15T11:21:54;11.80;95.80
1678;DHT22;6034;46.864;15.216;2024-02-15T11:24:25;11.80;95.00
1678;DHT22;6034;46.864;15.216;2024-02-15T11:26:58;11.90;95.10
1678;DHT22;6034;46.864;15.216;2024-02-15T11:29:51;11.70;94.60
1678;DHT22;6034;46.864;15.216;2024-02-15T11:32:42;11.70;94.80
1678;DHT22;6034;46.864;15.216;2024-02-15T11:35:14;11.80;95.70
1678;DHT22;6034;46.864;15.216;2024-02-15T11:37:55;11.90;96.20
1678;DHT22;6034;46.864;15.216;2024-02-15T11:40:26;12.00;95.80
1678;DHT22;6034;46.864;15.216;2024-02-15T11:42:56;12.00;95.60
1678;DHT22;6034;46.864;15.216;2024-02-15T11:45:25;12.00;95.80
1678;DHT22;6034;46.864;15.216;2024-02-15T11:47:58;12.10;95.70
1678;DHT22;6034;46.864;15.216;2024-02-15T11:50:28;12.10;95.10
1678;DHT22;6034;46.864;15.216;2024-02-15T11:53:06;12.10;95.60
1678;DHT22;6034;46.864;15.216;2024-02-15T11:55:35;12.00;95.00
1678;DHT22;6034;46.864;15.216;2024-02-15T11:58:06;12.10;95.10
1678;DHT22;6034;46.864;15.216;2024-02-15T12:00:44;12.10;95.20
1678;DHT22;6034;46.864;15.216;2024-02-15T12:03:29;12.10;95.40
1678;DHT22;6034;46.864;15.216;2024-02-15T12:06:17;12.00;95.30
1678;DHT22;6034;46.864;15.216;2024-02-15T12:09:02;12.10;95.10
1678;DHT22;6034;46.864;15.216;2024-02-15T12:11:46;12.10;95.10
1678;DHT22;6034;46.864;15.216;2024-02-15T12:14:32;11.80;94.30
1678;DHT22;6034;46.864;15.216;2024-02-15T12:17:17;11.90;95.20
1678;DHT22;6034;46.864;15.216;2024-02-15T12:20:03;11.90;94.70
1678;DHT22;6034;46.864;15.216;2024-02-15T12:22:40;12.00;95.60
1678;DHT22;6034;46.864;15.216;2024-02-15T12:25:08;11.90;95.00
1678;DHT22;6034;46.864;15.216;2024-02-15T12:27:43;12.00;95.60
1678;DHT22;6034;46.864;15.216;2024-02-15T12:30:15;12.00;95.60
1678;DHT22;6034;46.864;15.216;2024-02-15T12:32:47;12.00;95.00
1678;DHT22;6034;46.864;15.216;2024-02-15T12:35:16;12.00;95.20
1678;DHT22;6034;46.864;15.216;2024-02-15T12:37:46;12.10;95.20
1678;DHT22;6034;46.864;15.216;2024-02-15T12:40:15;12.20;95.50
1678;DHT22;6034;46.864;15.216;2024-02-15T12:42:43;12.20;95.60
1678;DHT22;6034;46.864;15.216;2024-02-15T12:45:21;12.30;95.70
1678;DHT22;6034;46.864;15.216;2024-02-15T12:47:51;12.40;95.60
1678;DHT22;6034;46.864;15.216;2024-02-15T12:50:20;12.40;95.10
1678;DHT22;6034;46.864;15.216;2024-02-15T12:52:49;12.40;94.70
1678;DHT22;6034;46.864;15.216;2024-02-15T12:55:20;12.30;95.10
1678;DHT22;6034;46.864;15.216;2024-02-15T12:57:49;12.40;94.90
1678;DHT22;6034;46.864;15.216;2024-02-15T13:00:18;12.30;94.80
1678;DHT22;6034;46.864;15.216;2024-02-15T13:02:48;12.40;94.80
1678;DHT22;6034;46.864;15.216;2024-02-15T13:05:16;12.50;95.30
1678;DHT22;6034;46.864;15.216;2024-02-15T13:07:45;12.60;94.30
1678;DHT22;6034;46.864;15.216;2024-02-15T13:10:13;12.50;94.10
1678;DHT22;6034;46.864;15.216;2024-02-15T13:12:43;12.60;94.20
1678;DHT22;6034;46.864;15.216;2024-02-15T13:15:12;12.70;94.20
1678;DHT22;6034;46.864;15.216;2024-02-15T13:17:43;12.90;94.10
1678;DHT22;6034;46.864;15.216;2024-02-15T13:20:12;12.80;94.40
1678;DHT22;6034;46.864;15.216;2024-02-15T13:22:41;12.80;94.30
1678;DHT22;6034;46.864;15.216;2024-02-15T13:25:11;12.80;94.00
1678;DHT22;6034;46.864;15.216;2024-02-15T13:27:39;12.80;94.20
1678;DHT22;6034;46.864;15.216;2024-02-15T13:30:09;12.80;94.00
1678;DHT22;6034;46.864;15.216;2024-02-15T13:32:37;12.80;93.60
1678;DHT22;6034;46.864;15.216;2024-02-15T13:35:06;12.80;93.60
1678;DHT22;6034;46.864;15.216;2024-02-15T13:37:41;12.90;94.10
1678;DHT22;6034;46.864;15.216;2024-02-15T13:40:14;12.90;93.90
1678;DHT22;6034;46.864;15.216;2024-02-15T13:42:43;12.90;93.90
1678;DHT22;6034;46.864;15.216;2024-02-15T13:45:15;12.70;93.50
1678;DHT22;6034;46.864;15.216;2024-02-15T13:47:45;12.50;93.00
1678;DHT22;6034;46.864;15.216;2024-02-15T13:50:13;12.70;93.70
1678;DHT22;6034;46.864;15.216;2024-02-15T13:52:44;12.80;93.40
1678;DHT22;6034;46.864;15.216;2024-02-15T13:55:13;12.90;93.50
1678;DHT22;6034;46.864;15.216;2024-02-15T13:57:41;12.80;93.70
1678;DHT22;6034;46.864;15.216;2024-02-15T14:00:10;12.80;93.70
1678;DHT22;6034;46.864;15.216;2024-02-15T14:02:47;12.80;93.30
1678;DHT22;6034;46.864;15.216;2024-02-15T14:05:15;12.70;93.50
1678;DHT22;6034;46.864;15.216;2024-02-15T14:07:54;12.90;94.00
1678;DHT22;6034;46.864;15.216;2024-02-15T14:10:22;12.90;93.80
1678;DHT22;6034;46.864;15.216;2024-02-15T14:12:52;13.00;93.40
1678;DHT22;6034;46.864;15.216;2024-02-15T14:15:21;13.00;93.30
1678;DHT22;6034;46.864;15.216;2024-02-15T14:17:48;13.10;93.10
1678;DHT22;6034;46.864;15.216;2024-02-15T14:20:16;13.00;93.40
1678;DHT22;6034;46.864;15.216;2024-02-15T14:22:46;12.90;92.70
1678;DHT22;6034;46.864;15.216;2024-02-15T14:25:17;13.00;92.70
1678;DHT22;6034;46.864;15.216;2024-02-15T14:27:45;13.00;92.40
1678;DHT22;6034;46.864;15.216;2024-02-15T14:30:13;13.00;92.40
1678;DHT22;6034;46.864;15.216;2024-02-15T14:32:58;13.00;92.40
1678;DHT22;6034;46.864;15.216;2024-02-15T14:35:31;13.00;92.10
1678;DHT22;6034;46.864;15.216;2024-02-15T14:38:02;12.90;92.10
1678;DHT22;6034;46.864;15.216;2024-02-15T14:40:33;13.00;92.20
1678;DHT22;6034;46.864;15.216;2024-02-15T14:43:01;13.00;92.30
1678;DHT22;6034;46.864;15.216;2024-02-15T14:45:31;12.80;92.10
1678;DHT22;6034;46.864;15.216;2024-02-15T14:47:59;12.90;92.60
1678;DHT22;6034;46.864;15.216;2024-02-15T14:50:27;12.90;92.50
1678;DHT22;6034;46.864;15.216;2024-02-15T14:52:54;12.90;91.80
1678;DHT22;6034;46.864;15.216;2024-02-15T14:55:22;12.80;91.40
1678;DHT22;6034;46.864;15.216;2024-02-15T14:57:51;12.80;91.60
1678;DHT22;6034;46.864;15.216;2024-02-15T15:00:18;12.90;91.80
1678;DHT22;6034;46.864;15.216;2024-02-15T15:02:48;12.90;91.60
1678;DHT22;6034;46.864;15.216;2024-02-15T15:05:15;12.80;91.80
1678;DHT22;6034;46.864;15.216;2024-02-15T15:08:08;12.90;91.50
1678;DHT22;6034;46.864;15.216;2024-02-15T15:10:55;12.90;91.40
1678;DHT22;6034;46.864;15.216;2024-02-15T15:13:41;12.80;91.40
1678;DHT22;6034;46.864;15.216;2024-02-15T15:16:08;12.90;91.10
1678;DHT22;6034;46.864;15.216;2024-02-15T15:18:40;12.80;91.40
1678;DHT22;6034;46.864;15.216;2024-02-15T15:21:07;12.70;91.60
1678;DHT22;6034;46.864;15.216;2024-02-15T15:23:35;12.70;91.80
1678;DHT22;6034;46.864;15.216;2024-02-15T15:26:02;12.80;91.40
1678;DHT22;6034;46.864;15.216;2024-02-15T15:28:29;12.80;91.10
1678;DHT22;6034;46.864;15.216;2024-02-15T15:30:58;12.70;90.90
1678;DHT22;6034;46.864;15.216;2024-02-15T15:33:25;12.60;91.00
1678;DHT22;6034;46.864;15.216;2024-02-15T15:35:53;12.60;91.40
1678;DHT22;6034;46.864;15.216;2024-02-15T15:38:20;12.50;91.50
1678;DHT22;6034;46.864;15.216;2024-02-15T15:40:47;12.40;91.80
1678;DHT22;6034;46.864;15.216;2024-02-15T15:43:16;12.20;92.10
1678;DHT22;6034;46.864;15.216;2024-02-15T15:45:45;12.20;92.60
1678;DHT22;6034;46.864;15.216;2024-02-15T15:48:14;12.20;92.70
1678;DHT22;6034;46.864;15.216;2024-02-15T15:50:42;12.30;92.80
1678;DHT22;6034;46.864;15.216;2024-02-15T15:53:10;12.20;92.70
1678;DHT22;6034;46.864;15.216;2024-02-15T15:55:37;12.20;92.70
1678;DHT22;6034;46.864;15.216;2024-02-15T15:58:05;12.10;93.10
1678;DHT22;6034;46.864;15.216;2024-02-15T16:00:33;12.10;92.80
1678;DHT22;6034;46.864;15.216;2024-02-15T16:03:01;12.10;92.60
1678;DHT22;6034;46.864;15.216;2024-02-15T16:05:32;11.90;92.40
1678;DHT22;6034;46.864;15.216;2024-02-15T16:08:00;12.00;92.60
1678;DHT22;6034;46.864;15.216;2024-02-15T16:10:29;12.00;92.40
1678;DHT22;6034;46.864;15.216;2024-02-15T16:12:56;11.90;92.30
1678;DHT22;6034;46.864;15.216;2024-02-15T16:15:26;11.90;92.20
1678;DHT22;6034;46.864;15.216;2024-02-15T16:17:53;11.90;92.30
1678;DHT22;6034;46.864;15.216;2024-02-15T16:20:21;11.80;92.00
1678;DHT22;6034;46.864;15.216;2024-02-15T16:22:50;11.70;92.30
1678;DHT22;6034;46.864;15.216;2024-02-15T16:25:17;11.70;92.50
1678;DHT22;6034;46.864;15.216;2024-02-15T16:27:45;11.60;92.60
1678;DHT22;6034;46.864;15.216;2024-02-15T16:30:13;11.60;92.60
1678;DHT22;6034;46.864;15.216;2024-02-15T16:32:41;11.50;92.50
1678;DHT22;6034;46.864;15.216;2024-02-15T16:35:09;11.50;92.50
1678;DHT22;6034;46.864;15.216;2024-02-15T16:37:38;11.60;92.30
1678;DHT22;6034;46.864;15.216;2024-02-15T16:40:10;11.50;92.20
1678;DHT22;6034;46.864;15.216;2024-02-15T16:42:38;11.50;92.50
1678;DHT22;6034;46.864;15.216;2024-02-15T16:45:10;11.50;92.80
1678;DHT22;6034;46.864;15.216;2024-02-15T16:47:37;11.60;92.90
1678;DHT22;6034;46.864;15.216;2024-02-15T16:50:05;11.50;92.70
1678;DHT22;6034;46.864;15.216;2024-02-15T16:52:34;11.40;92.70
1678;DHT22;6034;46.864;15.216;2024-02-15T16:55:03;11.20;92.80
1678;DHT22;6034;46.864;15.216;2024-02-15T16:57:33;11.30;93.10
1678;DHT22;6034;46.864;15.216;2024-02-15T17:00:00;11.40;92.80
1678;DHT22;6034;46.864;15.216;2024-02-15T17:02:31;11.40;92.90
1678;DHT22;6034;46.864;15.216;2024-02-15T17:04:58;11.50;92.90
1678;DHT22;6034;46.864;15.216;2024-02-15T17:07:25;11.50;93.00
1678;DHT22;6034;46.864;15.216;2024-02-15T17:09:53;11.40;93.10
1678;DHT22;6034;46.864;15.216;2024-02-15T17:12:21;11.40;93.20
1678;DHT22;6034;46.864;15.216;2024-02-15T17:14:50;11.40;93.40
1678;DHT22;6034;46.864;15.216;2024-02-15T17:17:18;11.40;93.50
1678;DHT22;6034;46.864;15.216;2024-02-15T17:19:45;11.40;93.60
1678;DHT22;6034;46.864;15.216;2024-02-15T17:22:13;11.30;93.70
1678;DHT22;6034;46.864;15.216;2024-02-15T17:24:41;11.40;93.70
1678;DHT22;6034;46.864;15.216;2024-02-15T17:27:09;11.40;93.60
1678;DHT22;6034;46.864;15.216;2024-02-15T17:29:36;11.30;93.50
1678;DHT22;6034;46.864;15.216;2024-02-15T17:32:05;11.30;93.60
1678;DHT22;6034;46.864;15.216;2024-02-15T17:34:33;11.30;93.70
1678;DHT22;6034;46.864;15.216;2024-02-15T17:37:01;10.90;93.70
1678;DHT22;6034;46.864;15.216;2024-02-15T17:39:28;10.80;94.10
1678;DHT22;6034;46.864;15.216;2024-02-15T17:41:55;10.60;94.30
1678;DHT22;6034;46.864;15.216;2024-02-15T17:44:23;10.80;94.40
1678;DHT22;6034;46.864;15.216;2024-02-15T17:46:50;10.60;94.60
1678;DHT22;6034;46.864;15.216;2024-02-15T17:49:21;10.70;94.50
1678;DHT22;6034;46.864;15.216;2024-02-15T17:51:49;10.60;94.50
1678;DHT22;6034;46.864;15.216;2024-02-15T17:54:17;10.70;94.50
1678;DHT22;6034;46.864;15.216;2024-02-15T17:56:44;10.70;94.50
1678;DHT22;6034;46.864;15.216;2024-02-15T17:59:13;10.70;94.50
1678;DHT22;6034;46.864;15.216;2024-02-15T18:01:41;10.70;94.60
1678;DHT22;6034;46.864;15.216;2024-02-15T18:04:09;10.60;94.40
1678;DHT22;6034;46.864;15.216;2024-02-15T18:06:38;10.50;94.60
1678;DHT22;6034;46.864;15.216;2024-02-15T18:09:05;10.50;94.60
1678;DHT22;6034;46.864;15.216;2024-02-15T18:11:33;10.50;94.70
1678;DHT22;6034;46.864;15.216;2024-02-15T18:14:01;10.40;94.80
1678;DHT22;6034;46.864;15.216;2024-02-15T18:16:28;10.40;94.60
1678;DHT22;6034;46.864;15.216;2024-02-15T18:18:56;10.40;94.80
1678;DHT22;6034;46.864;15.216;2024-02-15T18:21:23;10.30;94.80
1678;DHT22;6034;46.864;15.216;2024-02-15T18:23:54;10.20;94.80
1678;DHT22;6034;46.864;15.216;2024-02-15T18:26:21;10.20;95.00
1678;DHT22;6034;46.864;15.216;2024-02-15T18:28:49;10.30;95.00
1678;DHT22;6034;46.864;15.216;2024-02-15T18:31:18;10.30;95.00
1678;DHT22;6034;46.864;15.216;2024-02-15T18:33:45;10.50;94.80
1678;DHT22;6034;46.864;15.216;2024-02-15T18:36:14;10.60;94.70
1678;DHT22;6034;46.864;15.216;2024-02-15T18:38:41;10.50;94.60
1678;DHT22;6034;46.864;15.216;2024-02-15T18:41:14;10.50;94.60
1678;DHT22;6034;46.864;15.216;2024-02-15T18:43:41;10.20;94.90
1678;DHT22;6034;46.864;15.216;2024-02-15T18:46:15;10.10;95.20
1678;DHT22;6034;46.864;15.216;2024-02-15T18:48:42;10.10;95.30
1678;DHT22;6034;46.864;15.216;2024-02-15T18:51:14;9.90;96.00
1678;DHT22;6034;46.864;15.216;2024-02-15T18:53:42;10.10;95.50
1678;DHT22;6034;46.864;15.216;2024-02-15T18:56:14;10.30;95.20
1678;DHT22;6034;46.864;15.216;2024-02-15T18:58:44;10.40;95.10
1678;DHT22;6034;46.864;15.216;2024-02-15T19:01:12;10.20;95.10
1678;DHT22;6034;46.864;15.216;2024-02-15T19:03:39;10.20;95.50
1678;DHT22;6034;46.864;15.216;2024-02-15T19:06:07;10.10;95.60
1678;DHT22;6034;46.864;15.216;2024-02-15T19:08:36;10.00;96.00
1678;DHT22;6034;46.864;15.216;2024-02-15T19:11:04;9.90;96.80
1678;DHT22;6034;46.864;15.216;2024-02-15T19:13:33;10.00;96.20
1678;DHT22;6034;46.864;15.216;2024-02-15T19:16:00;10.00;96.30
1678;DHT22;6034;46.864;15.216;2024-02-15T19:18:27;9.90;96.40
1678;DHT22;6034;46.864;15.216;2024-02-15T19:20:55;10.00;95.70
1678;DHT22;6034;46.864;15.216;2024-02-15T19:23:23;9.90;96.10
1678;DHT22;6034;46.864;15.216;2024-02-15T19:25:51;9.90;96.20
1678;DHT22;6034;46.864;15.216;2024-02-15T19:28:19;9.80;96.20
1678;DHT22;6034;46.864;15.216;2024-02-15T19:30:50;9.90;96.20
1678;DHT22;6034;46.864;15.216;2024-02-15T19:33:18;10.00;95.30
1678;DHT22;6034;46.864;15.216;2024-02-15T19:35:48;10.10;95.00
1678;DHT22;6034;46.864;15.216;2024-02-15T19:38:16;9.90;95.60
1678;DHT22;6034;46.864;15.216;2024-02-15T19:40:44;9.90;96.10
1678;DHT22;6034;46.864;15.216;2024-02-15T19:43:12;9.80;96.50
1678;DHT22;6034;46.864;15.216;2024-02-15T19:45:41;9.80;96.70
1678;DHT22;6034;46.864;15.216;2024-02-15T19:48:10;9.80;96.80
1678;DHT22;6034;46.864;15.216;2024-02-15T19:50:38;9.80;96.60
1678;DHT22;6034;46.864;15.216;2024-02-15T19:53:06;9.80;96.50
1678;DHT22;6034;46.864;15.216;2024-02-15T19:55:34;9.80;96.40
1678;DHT22;6034;46.864;15.216;2024-02-15T19:58:04;9.80;96.30
1678;DHT22;6034;46.864;15.216;2024-02-15T20:00:31;9.70;96.30
1678;DHT22;6034;46.864;15.216;2024-02-15T20:02:58;9.60;96.40
1678;DHT22;6034;46.864;15.216;2024-02-15T20:05:28;9.70;96.50
1678;DHT22;6034;46.864;15.216;2024-02-15T20:07:55;9.90;96.20
1678;DHT22;6034;46.864;15.216;2024-02-15T20:10:22;10.00;95.50
1678;DHT22;6034;46.864;15.216;2024-02-15T20:12:51;9.90;96.10
1678;DHT22;6034;46.864;15.216;2024-02-15T20:15:18;10.00;95.70
1678;DHT22;6034;46.864;15.216;2024-02-15T20:17:45;10.00;95.60
1678;DHT22;6034;46.864;15.216;2024-02-15T20:20:13;9.90;96.40
1678;DHT22;6034;46.864;15.216;2024-02-15T20:22:43;10.00;95.70
1678;DHT22;6034;46.864;15.216;2024-02-15T20:25:12;10.00;95.60
1678;DHT22;6034;46.864;15.216;2024-02-15T20:27:39;10.00;95.50
1678;DHT22;6034;46.864;15.216;2024-02-15T20:30:07;9.90;96.10
1678;DHT22;6034;46.864;15.216;2024-02-15T20:32:38;10.00;95.60
1678;DHT22;6034;46.864;15.216;2024-02-15T20:35:05;9.90;96.30
1678;DHT22;6034;46.864;15.216;2024-02-15T20:37:33;9.90;96.70
1678;DHT22;6034;46.864;15.216;2024-02-15T20:40:02;9.80;96.90
1678;DHT22;6034;46.864;15.216;2024-02-15T20:42:31;9.80;96.90
1678;DHT22;6034;46.864;15.216;2024-02-15T20:44:58;9.90;97.20
1678;DHT22;6034;46.864;15.216;2024-02-15T20:47:26;9.90;97.20
1678;DHT22;6034;46.864;15.216;2024-02-15T20:49:55;9.80;97.10
1678;DHT22;6034;46.864;15.216;2024-02-15T20:52:24;9.70;97.10
1678;DHT22;6034;46.864;15.216;2024-02-15T20:54:52;9.70;97.30
1678;DHT22;6034;46.864;15.216;2024-02-15T20:57:21;9.70;97.10
1678;DHT22;6034;46.864;15.216;2024-02-15T20:59:48;9.60;97.10
1678;DHT22;6034;46.864;15.216;2024-02-15T21:02:15;9.60;97.00
1678;DHT22;6034;46.864;15.216;2024-02-15T21:04:46;9.60;97.40
1678;DHT22;6034;46.864;15.216;2024-02-15T21:07:13;9.60;97.70
1678;DHT22;6034;46.864;15.216;2024-02-15T21:09:40;9.60;97.80
1678;DHT22;6034;46.864;15.216;2024-02-15T21:12:07;9.50;98.00
1678;DHT22;6034;46.864;15.216;2024-02-15T21:14:37;9.50;97.80
1678;DHT22;6034;46.864;15.216;2024-02-15T21:17:06;9.50;98.00
1678;DHT22;6034;46.864;15.216;2024-02-15T21:19:33;9.40;98.20
1678;DHT22;6034;46.864;15.216;2024-02-15T21:22:04;9.40;98.20
1678;DHT22;6034;46.864;15.216;2024-02-15T21:24:32;9.20;97.90
1678;DHT22;6034;46.864;15.216;2024-02-15T21:27:02;9.30;97.90
1678;DHT22;6034;46.864;15.216;2024-02-15T21:29:29;9.10;98.00
1678;DHT22;6034;46.864;15.216;2024-02-15T21:31:58;9.10;98.10
1678;DHT22;6034;46.864;15.216;2024-02-15T21:34:25;9.20;98.20
1678;DHT22;6034;46.864;15.216;2024-02-15T21:36:52;9.20;98.00
1678;DHT22;6034;46.864;15.216;2024-02-15T21:39:20;9.20;97.90
1678;DHT22;6034;46.864;15.216;2024-02-15T21:41:50;9.00;98.30
1678;DHT22;6034;46.864;15.216;2024-02-15T21:44:18;9.00;98.50
1678;DHT22;6034;46.864;15.216;2024-02-15T21:46:45;9.00;98.40
1678;DHT22;6034;46.864;15.216;2024-02-15T21:49:14;8.80;98.70
1678;DHT22;6034;46.864;15.216;2024-02-15T21:51:41;8.80;98.90
1678;DHT22;6034;46.864;15.216;2024-02-15T21:54:09;8.80;98.80
1678;DHT22;6034;46.864;15.216;2024-02-15T21:56:36;9.00;98.50
1678;DHT22;6034;46.864;15.216;2024-02-15T21:59:03;9.10;98.50
1678;DHT22;6034;46.864;15.216;2024-02-15T22:01:31;9.10;98.40
1678;DHT22;6034;46.864;15.216;2024-02-15T22:03:58;9.10;98.30
1678;DHT22;6034;46.864;15.216;2024-02-15T22:06:28;9.10;98.30
1678;DHT22;6034;46.864;15.216;2024-02-15T22:08:55;9.10;98.30
1678;DHT22;6034;46.864;15.216;2024-02-15T22:11:23;9.10;98.30
1678;DHT22;6034;46.864;15.216;2024-02-15T22:13:51;9.10;98.30